sensor_id;sensor_type;location;lat;lon;timestamp;pressure;altitude;pressure_sealevel;temperature;humidity
70370;BME280;57790;51.356;-2.906;2022-12-18T00:01:45;102073.38;;;12.16;71.48
70370;BME280;57790;51.356;-2.906;2022-12-18T00:04:45;102069.75;;;12.17;71.49
70370;BME280;57790;51.356;-2.906;2022-12-18T00:07:46;102068.06;;;12.16;71.27
70370;BME280;57790;51.356;-2.906;2022-12-18T00:10:46;102051.53;;;12.13;70.98
70370;BME280;57790;51.356;-2.906;2022-12-18T00:13:47;102050.16;;;12.18;72.41
70370;BME280;57790;51.356;-2.906;2022-12-18T00:16:47;102053.78;;;12.17;75.86
70370;BME280;57790;51.356;-2.906;2022-12-18T00:19:48;102047.34;;;12.10;69.71
70370;BME280;57790;51.356;-2.906;2022-12-18T00:22:48;102035.19;;;12.17;72.25
70370;BME280;57790;51.356;-2.906;2022-12-18T00:25:49;102030.28;;;12.13;71.99
70370;BME280;57790;51.356;-2.906;2022-12-18T00:28:50;102022.72;;;11.99;71.46
70370;BME280;57790;51.356;-2.906;2022-12-18T00:31:50;102024.69;;;12.06;71.21
70370;BME280;57790;51.356;-2.906;2022-12-18T00:34:51;102018.81;;;11.93;70.31
70370;BME280;57790;51.356;-2.906;2022-12-18T00:37:51;102016.00;;;11.95;71.21
70370;BME280;57790;51.356;-2.906;2022-12-18T00:40:51;102017.56;;;11.87;70.65
70370;BME280;57790;51.356;-2.906;2022-12-18T00:43:52;102022.16;;;11.85;71.13
70370;BME280;57790;51.356;-2.906;2022-12-18T00:46:52;102017.69;;;11.86;70.21
70370;BME280;57790;51.356;-2.906;2022-12-18T00:49:52;102017.94;;;11.73;69.24
70370;BME280;57790;51.356;-2.906;2022-12-18T00:52:53;102019.78;;;11.82;70.83
70370;BME280;57790;51.356;-2.906;2022-12-18T00:55:56;102011.50;;;11.76;70.14
70370;BME280;57790;51.356;-2.906;2022-12-18T00:58:56;102006.78;;;11.79;69.73
70370;BME280;57790;51.356;-2.906;2022-12-18T01:01:56;102009.84;;;11.84;70.32
70370;BME280;57790;51.356;-2.906;2022-12-18T01:04:57;102006.88;;;11.78;69.24
70370;BME280;57790;51.356;-2.906;2022-12-18T01:07:58;102013.47;;;11.83;69.65
70370;BME280;57790;51.356;-2.906;2022-12-18T01:10:58;102015.97;;;11.75;70.63
70370;BME280;57790;51.356;-2.906;2022-12-18T01:13:59;102022.66;;;11.70;69.77
70370;BME280;57790;51.356;-2.906;2022-12-18T01:16:59;102032.59;;;11.68;69.42
70370;BME280;57790;51.356;-2.906;2022-12-18T01:19:59;102035.25;;;11.68;70.16
70370;BME280;57790;51.356;-2.906;2022-12-18T01:23:00;102038.31;;;11.63;70.24
70370;BME280;57790;51.356;-2.906;2022-12-18T01:26:05;102038.88;;;11.67;70.27
70370;BME280;57790;51.356;-2.906;2022-12-18T01:29:06;102025.34;;;11.60;70.16
70370;BME280;57790;51.356;-2.906;2022-12-18T01:32:07;102026.16;;;11.60;69.60
70370;BME280;57790;51.356;-2.906;2022-12-18T01:35:08;102027.84;;;11.61;69.74
70370;BME280;57790;51.356;-2.906;2022-12-18T01:38:08;102028.97;;;11.59;69.85
70370;BME280;57790;51.356;-2.906;2022-12-18T01:41:09;102016.91;;;11.55;70.07
70370;BME280;57790;51.356;-2.906;2022-12-18T01:48:00;101990.38;;;11.45;70.57
70370;BME280;57790;51.356;-2.906;2022-12-18T01:51:01;101987.00;;;11.43;71.09
70370;BME280;57790;51.356;-2.906;2022-12-18T01:54:02;101983.91;;;11.38;70.97
70370;BME280;57790;51.356;-2.906;2022-12-18T01:57:02;101985.16;;;11.34;71.32
70370;BME280;57790;51.356;-2.906;2022-12-18T02:00:12;101979.84;;;11.34;73.21
70370;BME280;57790;51.356;-2.906;2022-12-18T02:03:13;101979.28;;;11.30;74.27
70370;BME280;57790;51.356;-2.906;2022-12-18T02:06:32;101979.44;;;11.29;73.54
70370;BME280;57790;51.356;-2.906;2022-12-18T02:10:00;101984.28;;;11.24;73.93
70370;BME280;57790;51.356;-2.906;2022-12-18T02:20:01;101972.00;;;11.23;74.02
70370;BME280;57790;51.356;-2.906;2022-12-18T02:23:24;101978.16;;;11.23;74.45
70370;BME280;57790;51.356;-2.906;2022-12-18T02:26:36;101982.34;;;11.26;75.08
70370;BME280;57790;51.356;-2.906;2022-12-18T02:29:48;101976.47;;;11.22;73.38
70370;BME280;57790;51.356;-2.906;2022-12-18T02:32:52;101985.84;;;11.26;74.77
70370;BME280;57790;51.356;-2.906;2022-12-18T02:35:54;101979.69;;;11.26;74.62
70370;BME280;57790;51.356;-2.906;2022-12-18T02:38:56;101989.88;;;11.21;74.26
70370;BME280;57790;51.356;-2.906;2022-12-18T02:41:59;101971.84;;;11.24;75.50
70370;BME280;57790;51.356;-2.906;2022-12-18T02:45:02;101977.16;;;11.24;74.64
70370;BME280;57790;51.356;-2.906;2022-12-18T02:48:03;101974.50;;;11.15;74.63
70370;BME280;57790;51.356;-2.906;2022-12-18T02:51:07;101961.63;;;11.10;74.47
70370;BME280;57790;51.356;-2.906;2022-12-18T02:54:17;101968.38;;;11.14;75.28
70370;BME280;57790;51.356;-2.906;2022-12-18T03:00:42;101962.00;;;10.96;75.40
70370;BME280;57790;51.356;-2.906;2022-12-18T03:03:49;101955.56;;;10.98;76.17
70370;BME280;57790;51.356;-2.906;2022-12-18T03:06:56;101966.75;;;10.92;75.63
70370;BME280;57790;51.356;-2.906;2022-12-18T03:09:58;101965.78;;;10.93;76.50
70370;BME280;57790;51.356;-2.906;2022-12-18T03:13:09;101963.38;;;10.90;76.83
70370;BME280;57790;51.356;-2.906;2022-12-18T03:16:14;101947.44;;;10.81;76.84
70370;BME280;57790;51.356;-2.906;2022-12-18T03:19:16;101944.50;;;10.84;77.51
70370;BME280;57790;51.356;-2.906;2022-12-18T03:22:20;101932.50;;;10.80;78.34
70370;BME280;57790;51.356;-2.906;2022-12-18T03:25:22;101917.13;;;10.83;78.41
70370;BME280;57790;51.356;-2.906;2022-12-18T03:28:28;101907.94;;;10.87;78.58
70370;BME280;57790;51.356;-2.906;2022-12-18T03:31:31;101902.78;;;10.95;78.47
70370;BME280;57790;51.356;-2.906;2022-12-18T03:34:34;101900.84;;;10.97;79.25
70370;BME280;57790;51.356;-2.906;2022-12-18T03:37:35;101916.75;;;10.88;78.24
70370;BME280;57790;51.356;-2.906;2022-12-18T03:44:29;101903.34;;;10.89;78.96
70370;BME280;57790;51.356;-2.906;2022-12-18T03:54:09;101867.00;;;10.80;79.63
70370;BME280;57790;51.356;-2.906;2022-12-18T03:57:15;101848.16;;;10.83;79.88
70370;BME280;57790;51.356;-2.906;2022-12-18T04:00:18;101833.41;;;10.90;79.43
70370;BME280;57790;51.356;-2.906;2022-12-18T04:03:19;101833.22;;;10.82;79.31
70370;BME280;57790;51.356;-2.906;2022-12-18T04:06:20;101833.94;;;10.84;79.75
70370;BME280;57790;51.356;-2.906;2022-12-18T04:09:21;101827.09;;;10.82;79.58
70370;BME280;57790;51.356;-2.906;2022-12-18T04:12:25;101828.75;;;10.83;79.24
70370;BME280;57790;51.356;-2.906;2022-12-18T04:15:26;101818.16;;;10.83;79.19
70370;BME280;57790;51.356;-2.906;2022-12-18T04:18:26;101814.94;;;10.79;78.43
70370;BME280;57790;51.356;-2.906;2022-12-18T04:21:27;101804.34;;;10.79;79.48
70370;BME280;57790;51.356;-2.906;2022-12-18T04:24:27;101813.81;;;10.72;79.66
70370;BME280;57790;51.356;-2.906;2022-12-18T04:27:27;101810.34;;;10.71;79.21
70370;BME280;57790;51.356;-2.906;2022-12-18T04:30:28;101794.84;;;10.77;79.74
70370;BME280;57790;51.356;-2.906;2022-12-18T04:33:28;101788.97;;;10.73;79.60
70370;BME280;57790;51.356;-2.906;2022-12-18T04:36:29;101786.47;;;10.71;79.91
70370;BME280;57790;51.356;-2.906;2022-12-18T04:39:29;101781.84;;;10.73;80.01
70370;BME280;57790;51.356;-2.906;2022-12-18T04:42:29;101774.47;;;10.77;80.42
70370;BME280;57790;51.356;-2.906;2022-12-18T04:45:31;101772.22;;;10.72;79.92
70370;BME280;57790;51.356;-2.906;2022-12-18T04:48:32;101765.38;;;10.70;79.68
70370;BME280;57790;51.356;-2.906;2022-12-18T04:51:32;101752.97;;;10.70;79.73
70370;BME280;57790;51.356;-2.906;2022-12-18T04:54:33;101748.91;;;10.76;79.53
70370;BME280;57790;51.356;-2.906;2022-12-18T04:57:33;101743.03;;;10.82;77.88
70370;BME280;57790;51.356;-2.906;2022-12-18T05:00:33;101746.13;;;10.87;78.43
70370;BME280;57790;51.356;-2.906;2022-12-18T05:03:35;101749.19;;;10.92;76.86
70370;BME280;57790;51.356;-2.906;2022-12-18T05:06:35;101744.44;;;10.96;77.31
70370;BME280;57790;51.356;-2.906;2022-12-18T05:09:35;101734.66;;;10.96;74.76
70370;BME280;57790;51.356;-2.906;2022-12-18T05:12:36;101729.09;;;10.99;77.87
70370;BME280;57790;51.356;-2.906;2022-12-18T05:15:58;101706.59;;;11.03;76.19
70370;BME280;57790;51.356;-2.906;2022-12-18T05:18:58;101696.81;;;10.94;74.02
70370;BME280;57790;51.356;-2.906;2022-12-18T05:21:58;101686.22;;;10.94;74.88
70370;BME280;57790;51.356;-2.906;2022-12-18T05:24:59;101687.50;;;10.90;73.75
70370;BME280;57790;51.356;-2.906;2022-12-18T05:27:59;101695.56;;;10.98;75.17
70370;BME280;57790;51.356;-2.906;2022-12-18T05:31:00;101688.75;;;10.86;74.08
70370;BME280;57790;51.356;-2.906;2022-12-18T05:34:02;101685.94;;;10.97;75.34
70370;BME280;57790;51.356;-2.906;2022-12-18T05:37:02;101677.72;;;10.91;73.96
70370;BME280;57790;51.356;-2.906;2022-12-18T05:40:04;101684.25;;;11.16;74.99
70370;BME280;57790;51.356;-2.906;2022-12-18T05:43:04;101684.66;;;11.11;74.58
70370;BME280;57790;51.356;-2.906;2022-12-18T05:46:12;101680.06;;;11.03;74.49
70370;BME280;57790;51.356;-2.906;2022-12-18T05:49:13;101672.94;;;10.94;73.48
70370;BME280;57790;51.356;-2.906;2022-12-18T05:52:13;101681.75;;;11.05;74.37
70370;BME280;57790;51.356;-2.906;2022-12-18T05:55:13;101672.25;;;10.92;73.76
70370;BME280;57790;51.356;-2.906;2022-12-18T05:58:14;101667.19;;;11.09;75.22
70370;BME280;57790;51.356;-2.906;2022-12-18T06:01:19;101683.41;;;11.06;74.28
70370;BME280;57790;51.356;-2.906;2022-12-18T06:04:19;101689.31;;;10.99;74.51
70370;BME280;57790;51.356;-2.906;2022-12-18T06:07:19;101692.34;;;11.05;75.14
70370;BME280;57790;51.356;-2.906;2022-12-18T06:10:20;101693.88;;;11.17;75.31
70370;BME280;57790;51.356;-2.906;2022-12-18T06:13:20;101688.72;;;11.06;73.98
70370;BME280;57790;51.356;-2.906;2022-12-18T06:16:21;101690.25;;;11.08;74.60
70370;BME280;57790;51.356;-2.906;2022-12-18T06:19:21;101703.50;;;11.08;75.01
70370;BME280;57790;51.356;-2.906;2022-12-18T06:22:22;101702.56;;;10.99;75.70
70370;BME280;57790;51.356;-2.906;2022-12-18T06:25:22;101699.06;;;10.89;74.19
70370;BME280;57790;51.356;-2.906;2022-12-18T06:28:26;101711.75;;;11.15;75.82
70370;BME280;57790;51.356;-2.906;2022-12-18T06:31:26;101714.56;;;11.03;75.42
70370;BME280;57790;51.356;-2.906;2022-12-18T06:34:26;101700.31;;;11.14;75.71
70370;BME280;57790;51.356;-2.906;2022-12-18T06:37:27;101698.09;;;10.90;74.63
70370;BME280;57790;51.356;-2.906;2022-12-18T06:40:27;101699.78;;;11.01;76.07
70370;BME280;57790;51.356;-2.906;2022-12-18T06:43:28;101684.78;;;11.10;76.92
70370;BME280;57790;51.356;-2.906;2022-12-18T06:46:28;101676.97;;;10.98;75.73
70370;BME280;57790;51.356;-2.906;2022-12-18T06:49:28;101686.75;;;10.98;75.80
70370;BME280;57790;51.356;-2.906;2022-12-18T06:52:31;101682.19;;;10.90;76.07
70370;BME280;57790;51.356;-2.906;2022-12-18T06:55:32;101650.50;;;10.89;75.46
70370;BME280;57790;51.356;-2.906;2022-12-18T06:58:33;101647.41;;;10.93;77.80
70370;BME280;57790;51.356;-2.906;2022-12-18T07:01:33;101652.03;;;10.91;77.53
70370;BME280;57790;51.356;-2.906;2022-12-18T07:04:33;101664.03;;;10.86;76.19
70370;BME280;57790;51.356;-2.906;2022-12-18T07:07:34;101661.38;;;10.86;77.08
70370;BME280;57790;51.356;-2.906;2022-12-18T07:10:41;101664.31;;;10.83;75.63
70370;BME280;57790;51.356;-2.906;2022-12-18T07:13:42;101661.38;;;10.76;76.61
70370;BME280;57790;51.356;-2.906;2022-12-18T07:16:43;101658.00;;;10.84;79.07
70370;BME280;57790;51.356;-2.906;2022-12-18T07:19:43;101657.75;;;10.77;77.27
70370;BME280;57790;51.356;-2.906;2022-12-18T07:22:44;101668.91;;;10.81;76.39
70370;BME280;57790;51.356;-2.906;2022-12-18T07:25:44;101660.75;;;11.11;76.04
70370;BME280;57790;51.356;-2.906;2022-12-18T07:28:45;101652.88;;;11.39;73.80
70370;BME280;57790;51.356;-2.906;2022-12-18T07:31:45;101647.63;;;11.56;73.96
70370;BME280;57790;51.356;-2.906;2022-12-18T07:34:45;101643.53;;;11.72;75.36
70370;BME280;57790;51.356;-2.906;2022-12-18T07:37:48;101628.72;;;11.97;75.80
70370;BME280;57790;51.356;-2.906;2022-12-18T07:40:49;101624.50;;;12.21;75.52
70370;BME280;57790;51.356;-2.906;2022-12-18T07:43:49;101632.56;;;12.30;74.46
70370;BME280;57790;51.356;-2.906;2022-12-18T07:46:49;101642.88;;;12.50;73.42
70370;BME280;57790;51.356;-2.906;2022-12-18T07:49:50;101628.13;;;12.56;73.62
70370;BME280;57790;51.356;-2.906;2022-12-18T07:52:50;101637.66;;;12.59;73.47
70370;BME280;57790;51.356;-2.906;2022-12-18T07:55:58;101657.84;;;12.51;72.94
70370;BME280;57790;51.356;-2.906;2022-12-18T07:58:59;101654.50;;;12.49;74.00
70370;BME280;57790;51.356;-2.906;2022-12-18T08:01:59;101634.38;;;12.47;75.89
70370;BME280;57790;51.356;-2.906;2022-12-18T08:05:00;101617.25;;;12.67;76.68
70370;BME280;57790;51.356;-2.906;2022-12-18T08:08:00;101614.69;;;12.84;76.05
70370;BME280;57790;51.356;-2.906;2022-12-18T08:11:01;101605.81;;;13.01;75.49
70370;BME280;57790;51.356;-2.906;2022-12-18T08:14:01;101589.75;;;13.10;73.35
70370;BME280;57790;51.356;-2.906;2022-12-18T08:17:02;101576.41;;;13.28;73.59
70370;BME280;57790;51.356;-2.906;2022-12-18T08:20:02;101582.38;;;13.22;72.58
70370;BME280;57790;51.356;-2.906;2022-12-18T08:23:03;101576.16;;;13.48;74.60
70370;BME280;57790;51.356;-2.906;2022-12-18T08:26:03;101577.22;;;13.63;73.83
70370;BME280;57790;51.356;-2.906;2022-12-18T08:29:04;101582.94;;;13.84;74.88
70370;BME280;57790;51.356;-2.906;2022-12-18T08:32:05;101594.63;;;13.91;74.37
70370;BME280;57790;51.356;-2.906;2022-12-18T08:35:05;101591.13;;;13.91;73.37
70370;BME280;57790;51.356;-2.906;2022-12-18T08:38:06;101588.13;;;14.02;75.16
70370;BME280;57790;51.356;-2.906;2022-12-18T08:41:09;101579.16;;;14.11;73.59
70370;BME280;57790;51.356;-2.906;2022-12-18T08:44:10;101579.66;;;14.15;73.24
70370;BME280;57790;51.356;-2.906;2022-12-18T08:47:45;101571.31;;;14.42;73.73
70370;BME280;57790;51.356;-2.906;2022-12-18T08:50:59;101563.66;;;14.31;74.23
70370;BME280;57790;51.356;-2.906;2022-12-18T08:54:00;101553.47;;;14.43;75.39
70370;BME280;57790;51.356;-2.906;2022-12-18T08:57:00;101561.69;;;14.57;75.29
70370;BME280;57790;51.356;-2.906;2022-12-18T09:00:01;101562.47;;;14.74;75.61
70370;BME280;57790;51.356;-2.906;2022-12-18T09:03:01;101547.31;;;14.75;73.79
70370;BME280;57790;51.356;-2.906;2022-12-18T09:06:02;101563.00;;;14.78;74.14
70370;BME280;57790;51.356;-2.906;2022-12-18T09:09:03;101553.50;;;14.59;74.13
70370;BME280;57790;51.356;-2.906;2022-12-18T09:12:04;101550.34;;;14.64;75.14
70370;BME280;57790;51.356;-2.906;2022-12-18T09:15:05;101536.00;;;14.56;72.93
70370;BME280;57790;51.356;-2.906;2022-12-18T09:18:05;101533.81;;;14.60;75.18
70370;BME280;57790;51.356;-2.906;2022-12-18T09:21:17;101538.06;;;15.02;72.96
70370;BME280;57790;51.356;-2.906;2022-12-18T09:24:17;101527.91;;;14.97;73.71
70370;BME280;57790;51.356;-2.906;2022-12-18T09:27:18;101535.78;;;14.91;73.20
70370;BME280;57790;51.356;-2.906;2022-12-18T09:30:18;101543.47;;;14.77;73.49
70370;BME280;57790;51.356;-2.906;2022-12-18T09:33:21;101541.00;;;14.59;73.43
70370;BME280;57790;51.356;-2.906;2022-12-18T09:36:21;101522.66;;;14.65;73.60
70370;BME280;57790;51.356;-2.906;2022-12-18T09:39:22;101514.31;;;14.59;75.41
70370;BME280;57790;51.356;-2.906;2022-12-18T09:42:23;101507.28;;;14.42;75.56
70370;BME280;57790;51.356;-2.906;2022-12-18T09:45:24;101508.00;;;14.52;75.74
70370;BME280;57790;51.356;-2.906;2022-12-18T09:48:40;101493.63;;;14.37;76.93
70370;BME280;57790;51.356;-2.906;2022-12-18T09:52:04;101486.66;;;14.20;77.01
70370;BME280;57790;51.356;-2.906;2022-12-18T09:58:30;101474.31;;;14.19;79.13
70370;BME280;57790;51.356;-2.906;2022-12-18T10:01:32;101453.97;;;14.02;79.25
70370;BME280;57790;51.356;-2.906;2022-12-18T10:04:33;101448.84;;;14.08;81.83
70370;BME280;57790;51.356;-2.906;2022-12-18T10:10:46;101433.31;;;13.87;82.83
70370;BME280;57790;51.356;-2.906;2022-12-18T10:20:34;101394.84;;;13.82;84.21
70370;BME280;57790;51.356;-2.906;2022-12-18T10:27:15;101373.38;;;13.67;86.66
70370;BME280;57790;51.356;-2.906;2022-12-18T10:30:21;101368.72;;;13.77;87.10
70370;BME280;57790;51.356;-2.906;2022-12-18T10:33:24;101345.56;;;13.78;90.87
70370;BME280;57790;51.356;-2.906;2022-12-18T10:36:27;101320.09;;;15.01;93.82
70370;BME280;57790;51.356;-2.906;2022-12-18T10:39:28;101330.34;;;15.20;99.84
70370;BME280;57790;51.356;-2.906;2022-12-18T10:42:28;101324.06;;;15.51;92.39
70370;BME280;57790;51.356;-2.906;2022-12-18T10:45:28;101308.97;;;15.95;85.55
70370;BME280;57790;51.356;-2.906;2022-12-18T10:48:30;101302.84;;;16.46;84.51
70370;BME280;57790;51.356;-2.906;2022-12-18T10:51:36;101298.38;;;17.04;100.00
70370;BME280;57790;51.356;-2.906;2022-12-18T10:54:47;101281.75;;;17.08;97.08
70370;BME280;57790;51.356;-2.906;2022-12-18T10:57:48;101282.44;;;17.17;92.90
70370;BME280;57790;51.356;-2.906;2022-12-18T11:01:08;101266.44;;;17.51;89.00
70370;BME280;57790;51.356;-2.906;2022-12-18T11:04:09;101263.63;;;17.10;82.40
70370;BME280;57790;51.356;-2.906;2022-12-18T11:07:09;101246.66;;;17.03;85.94
70370;BME280;57790;51.356;-2.906;2022-12-18T11:10:18;101245.50;;;16.70;83.86
70370;BME280;57790;51.356;-2.906;2022-12-18T11:13:21;101246.53;;;16.69;83.09
70370;BME280;57790;51.356;-2.906;2022-12-18T11:16:26;101216.31;;;16.39;80.20
70370;BME280;57790;51.356;-2.906;2022-12-18T11:19:36;101203.81;;;16.46;81.32
70370;BME280;57790;51.356;-2.906;2022-12-18T11:22:37;101198.50;;;16.31;81.37
70370;BME280;57790;51.356;-2.906;2022-12-18T11:25:38;101208.38;;;16.30;85.42
70370;BME280;57790;51.356;-2.906;2022-12-18T11:28:42;101191.97;;;16.19;86.71
70370;BME280;57790;51.356;-2.906;2022-12-18T11:31:43;101183.88;;;16.48;85.28
70370;BME280;57790;51.356;-2.906;2022-12-18T11:34:48;101178.19;;;15.56;86.82
70370;BME280;57790;51.356;-2.906;2022-12-18T11:37:55;101174.00;;;15.09;93.17
70370;BME280;57790;51.356;-2.906;2022-12-18T11:41:02;101180.78;;;14.97;96.03
70370;BME280;57790;51.356;-2.906;2022-12-18T11:44:06;101159.84;;;14.86;98.16
70370;BME280;57790;51.356;-2.906;2022-12-18T11:47:15;101161.97;;;14.76;100.00
70370;BME280;57790;51.356;-2.906;2022-12-18T11:50:23;101155.94;;;14.74;100.00
70370;BME280;57790;51.356;-2.906;2022-12-18T11:53:25;101138.47;;;14.71;100.00
70370;BME280;57790;51.356;-2.906;2022-12-18T11:56:34;101135.63;;;14.50;100.00
70370;BME280;57790;51.356;-2.906;2022-12-18T12:00:01;101122.66;;;14.47;100.00
70370;BME280;57790;51.356;-2.906;2022-12-18T12:16:32;101077.50;;;14.14;100.00
70370;BME280;57790;51.356;-2.906;2022-12-18T12:23:09;101037.91;;;14.03;100.00
70370;BME280;57790;51.356;-2.906;2022-12-18T12:39:40;100987.16;;;13.96;100.00
70370;BME280;57790;51.356;-2.906;2022-12-18T12:42:48;100976.22;;;13.91;100.00
70370;BME280;57790;51.356;-2.906;2022-12-18T12:46:12;100970.28;;;14.04;100.00
70370;BME280;57790;51.356;-2.906;2022-12-18T12:49:17;100957.75;;;13.90;100.00
70370;BME280;57790;51.356;-2.906;2022-12-18T12:52:29;100944.28;;;13.83;100.00
70370;BME280;57790;51.356;-2.906;2022-12-18T12:55:31;100953.25;;;13.90;100.00
70370;BME280;57790;51.356;-2.906;2022-12-18T13:08:30;100904.13;;;13.85;100.00
70370;BME280;57790;51.356;-2.906;2022-12-18T13:11:38;100896.31;;;13.83;100.00
70370;BME280;57790;51.356;-2.906;2022-12-18T13:15:13;100884.59;;;13.92;100.00
70370;BME280;57790;51.356;-2.906;2022-12-18T13:18:22;100870.72;;;13.97;100.00
70370;BME280;57790;51.356;-2.906;2022-12-18T13:21:33;100863.91;;;13.94;100.00
70370;BME280;57790;51.356;-2.906;2022-12-18T13:24:34;100852.88;;;13.97;100.00
70370;BME280;57790;51.356;-2.906;2022-12-18T13:33:46;100822.66;;;14.05;100.00
70370;BME280;57790;51.356;-2.906;2022-12-18T13:36:47;100832.75;;;14.10;100.00
70370;BME280;57790;51.356;-2.906;2022-12-18T13:39:48;100834.22;;;14.12;100.00
70370;BME280;57790;51.356;-2.906;2022-12-18T13:42:49;100827.88;;;14.13;100.00
70370;BME280;57790;51.356;-2.906;2022-12-18T13:49:50;100808.31;;;14.21;100.00
70370;BME280;57790;51.356;-2.906;2022-12-18T13:52:52;100806.28;;;14.23;100.00
70370;BME280;57790;51.356;-2.906;2022-12-18T13:55:53;100820.25;;;14.25;100.00
70370;BME280;57790;51.356;-2.906;2022-12-18T13:59:51;100811.50;;;14.31;100.00
70370;BME280;57790;51.356;-2.906;2022-12-18T14:02:28;100815.00;;;14.32;100.00
70370;BME280;57790;51.356;-2.906;2022-12-18T14:05:34;100792.69;;;14.33;100.00
70370;BME280;57790;51.356;-2.906;2022-12-18T14:08:40;100805.34;;;14.30;100.00
70370;BME280;57790;51.356;-2.906;2022-12-18T14:11:46;100787.41;;;14.39;100.00
70370;BME280;57790;51.356;-2.906;2022-12-18T14:14:49;100784.50;;;14.34;100.00
70370;BME280;57790;51.356;-2.906;2022-12-18T14:17:53;100783.66;;;14.34;100.00
70370;BME280;57790;51.356;-2.906;2022-12-18T14:20:58;100770.41;;;14.25;100.00
70370;BME280;57790;51.356;-2.906;2022-12-18T14:27:25;100764.34;;;14.32;100.00
70370;BME280;57790;51.356;-2.906;2022-12-18T14:33:37;100752.09;;;14.37;100.00
70370;BME280;57790;51.356;-2.906;2022-12-18T14:36:38;100756.53;;;14.30;100.00
70370;BME280;57790;51.356;-2.906;2022-12-18T14:39:40;100743.84;;;14.32;100.00
70370;BME280;57790;51.356;-2.906;2022-12-18T14:42:40;100752.09;;;14.37;100.00
70370;BME280;57790;51.356;-2.906;2022-12-18T14:45:44;100749.72;;;14.27;100.00
70370;BME280;57790;51.356;-2.906;2022-12-18T14:48:47;100756.31;;;14.32;100.00
70370;BME280;57790;51.356;-2.906;2022-12-18T14:51:53;100747.25;;;14.26;100.00
70370;BME280;57790;51.356;-2.906;2022-12-18T14:54:54;100743.19;;;14.30;100.00
70370;BME280;57790;51.356;-2.906;2022-12-18T14:57:55;100748.19;;;14.18;100.00
70370;BME280;57790;51.356;-2.906;2022-12-18T15:00:56;100745.78;;;14.23;100.00
70370;BME280;57790;51.356;-2.906;2022-12-18T15:03:58;100739.44;;;14.24;100.00
70370;BME280;57790;51.356;-2.906;2022-12-18T15:07:13;100748.16;;;14.33;100.00
70370;BME280;57790;51.356;-2.906;2022-12-18T15:10:25;100753.84;;;14.30;100.00
70370;BME280;57790;51.356;-2.906;2022-12-18T15:13:26;100740.31;;;14.32;100.00
70370;BME280;57790;51.356;-2.906;2022-12-18T15:16:27;100744.28;;;14.36;100.00
70370;BME280;57790;51.356;-2.906;2022-12-18T15:19:41;100754.78;;;14.37;100.00
70370;BME280;57790;51.356;-2.906;2022-12-18T15:22:42;100743.09;;;14.38;100.00
70370;BME280;57790;51.356;-2.906;2022-12-18T15:25:43;100745.94;;;14.37;100.00
70370;BME280;57790;51.356;-2.906;2022-12-18T15:28:48;100741.06;;;14.40;100.00
70370;BME280;57790;51.356;-2.906;2022-12-18T15:38:11;100751.09;;;14.38;100.00
70370;BME280;57790;51.356;-2.906;2022-12-18T15:41:13;100736.75;;;14.39;100.00
70370;BME280;57790;51.356;-2.906;2022-12-18T15:44:23;100732.69;;;14.43;100.00
70370;BME280;57790;51.356;-2.906;2022-12-18T15:47:23;100729.38;;;14.41;100.00
70370;BME280;57790;51.356;-2.906;2022-12-18T15:50:24;100720.19;;;14.44;100.00
70370;BME280;57790;51.356;-2.906;2022-12-18T15:53:30;100717.63;;;14.50;100.00
70370;BME280;57790;51.356;-2.906;2022-12-18T15:56:31;100721.50;;;14.48;100.00
70370;BME280;57790;51.356;-2.906;2022-12-18T15:59:55;100714.13;;;14.50;100.00
70370;BME280;57790;51.356;-2.906;2022-12-18T16:02:58;100703.47;;;14.50;100.00
70370;BME280;57790;51.356;-2.906;2022-12-18T16:05:58;100697.66;;;14.46;100.00
70370;BME280;57790;51.356;-2.906;2022-12-18T16:09:02;100700.59;;;14.51;100.00
70370;BME280;57790;51.356;-2.906;2022-12-18T16:12:02;100695.44;;;14.50;100.00
70370;BME280;57790;51.356;-2.906;2022-12-18T16:15:04;100692.97;;;14.48;100.00
70370;BME280;57790;51.356;-2.906;2022-12-18T16:18:04;100691.97;;;14.49;100.00
70370;BME280;57790;51.356;-2.906;2022-12-18T16:21:05;100686.00;;;14.47;100.00
70370;BME280;57790;51.356;-2.906;2022-12-18T16:24:08;100675.69;;;14.44;100.00
70370;BME280;57790;51.356;-2.906;2022-12-18T16:27:10;100689.16;;;14.43;100.00
70370;BME280;57790;51.356;-2.906;2022-12-18T16:30:15;100696.53;;;14.41;100.00
70370;BME280;57790;51.356;-2.906;2022-12-18T16:33:15;100694.69;;;14.41;100.00
70370;BME280;57790;51.356;-2.906;2022-12-18T16:36:16;100678.81;;;14.48;100.00
70370;BME280;57790;51.356;-2.906;2022-12-18T16:39:17;100689.28;;;14.49;100.00
70370;BME280;57790;51.356;-2.906;2022-12-18T16:42:19;100673.28;;;14.49;100.00
70370;BME280;57790;51.356;-2.906;2022-12-18T16:45:20;100666.09;;;14.50;100.00
70370;BME280;57790;51.356;-2.906;2022-12-18T16:48:20;100664.66;;;14.47;100.00
70370;BME280;57790;51.356;-2.906;2022-12-18T16:51:20;100651.94;;;14.49;100.00
70370;BME280;57790;51.356;-2.906;2022-12-18T16:54:21;100645.50;;;14.44;100.00
70370;BME280;57790;51.356;-2.906;2022-12-18T16:57:22;100649.91;;;14.51;100.00
70370;BME280;57790;51.356;-2.906;2022-12-18T17:00:22;100627.94;;;14.49;100.00
70370;BME280;57790;51.356;-2.906;2022-12-18T17:03:23;100633.50;;;14.54;100.00
70370;BME280;57790;51.356;-2.906;2022-12-18T17:06:24;100622.03;;;14.54;100.00
70370;BME280;57790;51.356;-2.906;2022-12-18T17:09:25;100623.91;;;14.60;100.00
70370;BME280;57790;51.356;-2.906;2022-12-18T17:12:25;100631.56;;;14.63;100.00
70370;BME280;57790;51.356;-2.906;2022-12-18T17:15:26;100621.25;;;14.60;100.00
70370;BME280;57790;51.356;-2.906;2022-12-18T17:18:26;100625.19;;;14.64;100.00
70370;BME280;57790;51.356;-2.906;2022-12-18T17:21:27;100617.19;;;14.64;100.00
70370;BME280;57790;51.356;-2.906;2022-12-18T17:24:28;100612.88;;;14.63;100.00
70370;BME280;57790;51.356;-2.906;2022-12-18T17:27:28;100621.94;;;14.69;100.00